createdAt,value
2022-08-23T00:00:12.956Z, 36.22
2022-08-23T00:01:05.380Z, 36.14
2022-08-23T00:02:06.874Z, 36.14
2022-08-23T00:03:05.483Z, 36.19
2022-08-23T00:04:05.459Z, 36.26
2022-08-23T00:05:08.687Z, 36.26
2022-08-23T00:06:05.586Z, 36.10
2022-08-23T00:07:05.591Z, 36.46
2022-08-23T00:08:05.600Z, 36.35
2022-08-23T00:09:05.706Z, 36.24
2022-08-23T00:10:05.707Z, 36.38
2022-08-23T00:11:05.715Z, 36.24
2022-08-23T00:12:05.749Z, 36.24
2022-08-23T00:13:05.779Z, 36.21
2022-08-23T00:14:05.847Z, 36.13
2022-08-23T00:15:05.843Z, 36.24
2022-08-23T00:16:05.902Z, 36.42
2022-08-23T00:17:05.943Z, 36.12
2022-08-23T00:18:05.986Z, 36.20
2022-08-23T00:19:05.969Z, 36.20
2022-08-23T00:20:06.027Z, 36.06
2022-08-23T00:21:06.018Z, 36.21
2022-08-23T00:22:06.024Z, 36.34
2022-08-23T00:23:06.060Z, 36.09
2022-08-23T00:24:06.146Z, 36.15
2022-08-23T00:25:06.144Z, 36.12
2022-08-23T00:26:06.171Z, 36.10
2022-08-23T00:27:06.204Z, 36.18
2022-08-23T00:28:11.446Z, 36.23
2022-08-23T00:29:06.239Z, 36.25
2022-08-23T00:30:06.344Z, 36.11
2022-08-23T00:31:06.324Z, 36.34
2022-08-23T00:32:06.363Z, 36.43
2022-08-23T00:33:06.455Z, 36.38
2022-08-23T00:34:06.452Z, 36.26
2022-08-23T00:35:06.455Z, 36.20
2022-08-23T00:36:06.540Z, 36.21
2022-08-23T00:37:06.521Z, 36.11
2022-08-23T00:38:32.350Z, 36.01
2022-08-23T00:39:06.566Z, 36.19
2022-08-23T00:40:06.626Z, 36.27
2022-08-23T00:41:06.644Z, 36.22
2022-08-23T00:42:06.693Z, 36.32
2022-08-23T00:43:06.768Z, 36.14
2022-08-23T00:44:06.763Z, 36.14
2022-08-23T00:45:06.769Z, 36.28
2022-08-23T00:46:06.876Z, 36.25
2022-08-23T00:47:06.897Z, 36.15
2022-08-23T00:48:06.894Z, 36.27
2022-08-23T00:49:06.929Z, 36.34
2022-08-23T00:50:23.506Z, 36.00
2022-08-23T00:51:07.081Z, 36.00
2022-08-23T00:52:07.076Z, 36.17
2022-08-23T00:53:07.084Z, 36.23
2022-08-23T00:54:07.105Z, 36.24
2022-08-23T00:55:07.150Z, 36.21
2022-08-23T00:56:07.186Z, 36.19
2022-08-23T00:57:07.233Z, 36.07
2022-08-23T00:58:07.313Z, 36.29
2022-08-23T00:59:07.302Z, 36.40
2022-08-23T01:00:07.380Z, 36.44
2022-08-23T01:01:07.370Z, 36.18
2022-08-23T01:02:07.447Z, 36.26
2022-08-23T01:03:07.429Z, 36.21
2022-08-23T01:04:07.498Z, 36.18
2022-08-23T01:05:07.471Z, 36.39
2022-08-23T01:06:07.534Z, 36.24
2022-08-23T01:07:07.520Z, 36.20
2022-08-23T01:08:07.537Z, 36.28
2022-08-23T01:09:07.558Z, 36.05
2022-08-23T01:10:07.601Z, 36.05
2022-08-23T01:11:08.874Z, 36.25
2022-08-23T01:12:07.700Z, 36.10
2022-08-23T01:13:07.714Z, 36.12
2022-08-23T01:14:07.750Z, 36.29
2022-08-23T01:15:07.782Z, 36.27
2022-08-23T01:16:07.851Z, 36.16
2022-08-23T01:17:07.839Z, 36.33
2022-08-23T01:18:07.944Z, 36.17
2022-08-23T01:19:07.927Z, 36.21
2022-08-23T01:20:07.974Z, 36.14
2022-08-23T01:21:08.018Z, 35.93
2022-08-23T01:22:08.013Z, 35.91
2022-08-23T01:23:08.048Z, 36.05
2022-08-23T01:24:08.109Z, 36.18
2022-08-23T01:25:09.141Z, 36.06
2022-08-23T01:26:08.141Z, 36.05
2022-08-23T01:27:08.181Z, 36.00
2022-08-23T01:28:08.284Z, 36.03
2022-08-23T01:29:08.263Z, 36.02
2022-08-23T01:30:08.329Z, 36.08
2022-08-23T01:31:08.320Z, 35.95
2022-08-23T01:32:08.323Z, 36.11
2022-08-23T01:33:08.376Z, 36.35
2022-08-23T01:34:08.411Z, 36.26
2022-08-23T01:35:08.485Z, 36.07
2022-08-23T01:36:09.863Z, 36.12
2022-08-23T01:37:08.559Z, 36.02
2022-08-23T01:38:08.561Z, 36.08
2022-08-23T01:39:08.592Z, 36.10
2022-08-23T01:40:08.697Z, 36.05
2022-08-23T01:41:08.646Z, 36.10
2022-08-23T01:42:08.701Z, 35.93
2022-08-23T01:43:08.748Z, 36.10
2022-08-23T01:44:08.815Z, 36.00
2022-08-23T01:45:08.795Z, 36.08
2022-08-23T01:46:08.823Z, 35.99
2022-08-23T01:47:08.919Z, 36.03
2022-08-23T01:48:08.962Z, 35.96
2022-08-23T01:49:08.940Z, 36.06
2022-08-23T01:50:08.962Z, 35.90
2022-08-23T01:51:09.029Z, 36.16
2022-08-23T01:52:09.030Z, 36.23
2022-08-23T01:53:09.106Z, 35.99
2022-08-23T01:54:09.092Z, 36.23
2022-08-23T01:55:10.583Z, 35.92
2022-08-23T01:56:09.140Z, 36.04
2022-08-23T01:57:09.173Z, 36.01
2022-08-23T01:58:09.209Z, 35.98
2022-08-23T01:59:09.245Z, 36.06
2022-08-23T02:00:09.323Z, 36.13
2022-08-23T02:01:09.379Z, 36.03
2022-08-23T02:02:09.353Z, 36.01
2022-08-23T02:03:09.366Z, 35.98
2022-08-23T02:04:09.414Z, 35.97
2022-08-23T02:05:09.488Z, 36.18
2022-08-23T02:06:09.463Z, 36.03
2022-08-23T02:07:09.531Z, 35.90
2022-08-23T02:08:09.546Z, 35.97
2022-08-23T02:09:17.373Z, 36.10
2022-08-23T02:10:09.593Z, 36.13
2022-08-23T02:11:09.665Z, 35.97
2022-08-23T02:12:09.713Z, 36.06
2022-08-23T02:13:09.814Z, 36.11
2022-08-23T02:14:09.734Z, 35.97
2022-08-23T02:15:09.842Z, 35.83
2022-08-23T02:16:09.817Z, 35.97
2022-08-23T02:17:09.847Z, 35.90
2022-08-23T02:18:09.868Z, 36.06
2022-08-23T02:19:09.965Z, 35.89
2022-08-23T02:20:09.963Z, 35.86
2022-08-23T02:21:09.964Z, 35.85
2022-08-23T02:22:10.055Z, 35.96
2022-08-23T02:23:10.031Z, 35.97
2022-08-23T02:24:10.059Z, 35.97
2022-08-23T02:25:10.092Z, 36.04
2022-08-23T02:26:10.127Z, 36.25
2022-08-23T02:27:10.212Z, 36.09
2022-08-23T02:28:10.196Z, 35.84
2022-08-23T02:29:10.231Z, 35.85
2022-08-23T02:30:10.268Z, 35.78
2022-08-23T02:31:10.300Z, 35.88
2022-08-23T02:32:10.333Z, 35.74
2022-08-23T02:33:10.365Z, 35.85
2022-08-23T02:36:15.479Z, 35.90
2022-08-23T02:37:10.548Z, 35.84
2022-08-23T02:38:10.571Z, 35.96
2022-08-23T02:39:10.644Z, 35.91
2022-08-23T02:40:10.793Z, 36.10
2022-08-23T02:41:10.675Z, 36.08
2022-08-23T02:42:11.617Z, 35.80
2022-08-23T02:43:10.715Z, 36.02
2022-08-23T02:44:10.857Z, 35.90
2022-08-23T02:45:10.994Z, 35.85
2022-08-23T02:46:10.903Z, 35.90
2022-08-23T02:47:10.997Z, 35.97
2022-08-23T02:48:11.130Z, 35.91
2022-08-23T02:49:11.137Z, 35.97
2022-08-23T02:50:11.184Z, 35.82
2022-08-23T02:51:11.177Z, 35.92
2022-08-23T02:52:11.273Z, 35.98
2022-08-23T02:53:11.318Z, 35.86
2022-08-23T02:54:11.279Z, 35.95
2022-08-23T02:55:11.415Z, 35.81
2022-08-23T02:56:21.275Z, 35.82
2022-08-23T02:57:11.415Z, 35.82
2022-08-23T02:58:11.322Z, 36.01
2022-08-23T02:59:11.479Z, 36.06
2022-08-23T03:00:11.558Z, 36.03
2022-08-23T03:01:11.475Z, 35.92
2022-08-23T03:02:11.608Z, 35.89
2022-08-23T03:03:11.561Z, 36.05
2022-08-23T03:04:11.701Z, 35.94
2022-08-23T03:05:11.697Z, 35.83
2022-08-23T03:06:25.447Z, 35.82
2022-08-23T03:07:11.609Z, 35.94
2022-08-23T03:08:11.746Z, 35.94
2022-08-23T03:09:11.840Z, 35.84
2022-08-23T03:10:11.838Z, 35.89
2022-08-23T03:11:11.748Z, 36.05
2022-08-23T03:12:11.925Z, 35.86
2022-08-23T03:13:11.883Z, 35.94
2022-08-23T03:14:11.926Z, 35.70
2022-08-23T03:15:11.938Z, 36.15
2022-08-23T03:16:11.889Z, 35.95
2022-08-23T03:17:11.934Z, 35.82
2022-08-23T03:18:11.973Z, 35.77
2022-08-23T03:19:12.104Z, 35.86
2022-08-23T03:20:12.108Z, 35.80
2022-08-23T03:21:12.148Z, 38.81
2022-08-23T03:22:12.164Z, 38.59
2022-08-23T03:23:12.149Z, 38.88
2022-08-23T03:24:12.280Z, 38.74
2022-08-23T03:25:12.318Z, 38.71
2022-08-23T03:26:12.456Z, 38.59
2022-08-23T03:27:12.325Z, 38.88
2022-08-23T03:28:12.323Z, 38.75
2022-08-23T03:29:12.615Z, 39.07
2022-08-23T03:30:19.286Z, 38.90
2022-08-23T03:31:12.454Z, 38.67
2022-08-23T03:32:12.449Z, 38.84
2022-08-23T03:33:12.452Z, 38.78
2022-08-23T03:34:12.619Z, 38.92
2022-08-23T03:35:15.317Z, 38.73
2022-08-23T03:36:12.625Z, 38.80
2022-08-23T03:37:12.627Z, 38.87
2022-08-23T03:38:12.761Z, 38.72
2022-08-23T03:39:12.760Z, 38.85
2022-08-23T03:40:12.847Z, 38.99
2022-08-23T03:41:12.759Z, 38.83
2022-08-23T03:42:12.764Z, 38.75
2022-08-23T03:43:12.766Z, 38.92
2022-08-23T03:44:12.796Z, 38.78
2022-08-23T03:45:12.900Z, 38.80
2022-08-23T03:46:12.896Z, 38.99
2022-08-23T03:47:12.923Z, 38.89
2022-08-23T03:48:12.903Z, 38.83
2022-08-23T03:49:12.970Z, 38.88
2022-08-23T03:50:12.939Z, 38.86
2022-08-23T03:51:13.066Z, 38.62
2022-08-23T03:52:13.079Z, 38.93
2022-08-23T03:53:13.073Z, 38.73
2022-08-23T03:54:13.242Z, 38.94
2022-08-23T03:55:13.243Z, 39.04
2022-08-23T03:56:13.240Z, 38.83
2022-08-23T03:57:13.244Z, 38.94
2022-08-23T03:58:13.416Z, 38.84
2022-08-23T03:59:13.434Z, 38.87
2022-08-23T04:00:13.417Z, 38.93
2022-08-23T04:01:13.417Z, 38.70
2022-08-23T04:02:13.486Z, 38.68
2022-08-23T04:03:13.430Z, 38.86
2022-08-23T04:04:13.453Z, 38.93
2022-08-23T04:05:13.588Z, 38.96
2022-08-23T04:06:13.586Z, 39.01
2022-08-23T04:07:13.594Z, 39.13
2022-08-23T04:08:13.619Z, 38.92
2022-08-23T04:09:13.760Z, 38.81
2022-08-23T04:10:13.766Z, 38.90
2022-08-23T04:11:13.768Z, 38.91
2022-08-23T04:12:17.752Z, 38.84
2022-08-23T04:13:13.774Z, 38.96
2022-08-23T04:14:13.798Z, 38.92
2022-08-23T04:15:13.937Z, 38.84
2022-08-23T04:16:13.934Z, 38.96
2022-08-23T04:17:13.958Z, 38.91
2022-08-23T04:18:13.938Z, 38.88
2022-08-23T04:19:13.967Z, 38.85
2022-08-23T04:20:14.109Z, 38.80
2022-08-23T04:21:14.111Z, 38.92
2022-08-23T04:22:14.111Z, 39.08
2022-08-23T04:23:14.167Z, 39.12
2022-08-23T04:24:14.166Z, 39.12
2022-08-23T04:25:33.571Z, 39.02
2022-08-23T04:26:14.175Z, 39.11
2022-08-23T04:27:14.162Z, 39.06
2022-08-23T04:28:14.163Z, 39.04
2022-08-23T04:29:14.192Z, 39.16
2022-08-23T04:30:14.218Z, 38.99
2022-08-23T04:31:14.302Z, 39.01
2022-08-23T04:32:14.297Z, 39.15
2022-08-23T04:33:17.839Z, 38.95
2022-08-23T04:34:14.348Z, 39.02
2022-08-23T04:35:14.363Z, 38.90
2022-08-23T04:36:14.388Z, 38.85
2022-08-23T04:37:14.422Z, 38.92
2022-08-23T04:38:24.016Z, 38.87
2022-08-23T04:39:14.537Z, 39.15
2022-08-23T04:40:14.609Z, 38.96
2022-08-23T04:41:14.560Z, 39.09
2022-08-23T04:42:14.978Z, 39.14
2022-08-23T04:43:14.607Z, 39.05
2022-08-23T04:44:14.634Z, 39.05
2022-08-23T04:45:14.666Z, 39.05
2022-08-23T04:46:14.766Z, 39.14
2022-08-23T04:47:14.767Z, 39.04
2022-08-23T04:48:14.780Z, 39.06
2022-08-23T04:49:14.844Z, 38.98
2022-08-23T04:50:14.854Z, 39.01
2022-08-23T04:51:14.890Z, 39.08
2022-08-23T04:52:19.066Z, 39.16
2022-08-23T04:53:14.959Z, 38.99
2022-08-23T04:54:15.046Z, 39.12
2022-08-23T04:55:15.090Z, 39.03
2022-08-23T04:56:15.062Z, 39.01
2022-08-23T04:57:15.093Z, 39.00
2022-08-23T04:58:15.129Z, 39.00
2022-08-23T04:59:15.151Z, 39.14
2022-08-23T05:00:15.205Z, 39.17
2022-08-23T05:01:15.315Z, 39.20
2022-08-23T05:02:15.261Z, 39.01
2022-08-23T05:03:15.306Z, 39.24
2022-08-23T05:04:15.321Z, 39.15
2022-08-23T05:05:15.340Z, 39.00
2022-08-23T05:06:15.416Z, 39.10
2022-08-23T05:07:15.467Z, 39.12
2022-08-23T05:08:15.450Z, 39.13
2022-08-23T05:09:20.373Z, 39.02
2022-08-23T05:10:15.538Z, 39.08
2022-08-23T05:11:15.562Z, 39.26
2022-08-23T05:12:15.595Z, 39.07
2022-08-23T05:13:15.603Z, 39.10
2022-08-23T05:14:15.635Z, 39.16
2022-08-23T05:15:15.669Z, 39.16
2022-08-23T05:16:15.704Z, 39.05
2022-08-23T05:17:15.791Z, 39.11
2022-08-23T05:18:15.766Z, 39.22
2022-08-23T05:19:15.789Z, 39.27
2022-08-23T05:20:15.821Z, 39.15
2022-08-23T05:21:15.841Z, 39.25
2022-08-23T05:22:15.890Z, 39.05
2022-08-23T05:23:15.960Z, 39.21
2022-08-23T05:24:15.965Z, 39.19
2022-08-23T05:25:15.995Z, 39.19
2022-08-23T05:26:16.020Z, 39.07
2022-08-23T05:27:16.106Z, 39.19
2022-08-23T05:28:16.106Z, 39.13
2022-08-23T05:29:16.162Z, 39.17
2022-08-23T05:30:16.147Z, 39.29
2022-08-23T05:31:16.180Z, 39.09
2022-08-23T05:32:16.209Z, 39.15
2022-08-23T05:33:16.240Z, 39.09
2022-08-23T05:34:16.261Z, 39.28
2022-08-23T05:35:16.287Z, 39.34
2022-08-23T05:36:16.317Z, 39.07
2022-08-23T05:37:16.370Z, 39.11
2022-08-23T05:38:20.500Z, 39.32
2022-08-23T05:39:17.271Z, 39.20
2022-08-23T05:40:16.622Z, 39.15
2022-08-23T05:41:16.495Z, 39.08
2022-08-23T05:42:16.579Z, 39.12
2022-08-23T05:43:16.560Z, 39.08
2022-08-23T05:44:16.626Z, 39.25
2022-08-23T05:45:21.053Z, 39.28
2022-08-23T05:46:18.339Z, 39.25
2022-08-23T05:47:16.722Z, 39.19
2022-08-23T05:48:18.329Z, 39.24
2022-08-23T05:49:21.043Z, 39.25
2022-08-23T05:50:16.721Z, 39.27
2022-08-23T05:51:16.786Z, 39.15
2022-08-23T05:52:16.868Z, 39.24
2022-08-23T05:53:16.900Z, 39.17
2022-08-23T05:54:16.956Z, 39.38
2022-08-23T05:55:16.959Z, 39.26
2022-08-23T05:56:16.921Z, 39.27
2022-08-23T05:57:16.935Z, 39.41
2022-08-23T05:58:16.954Z, 39.25
2022-08-23T05:59:17.022Z, 39.32
2022-08-23T06:00:17.090Z, 39.41
2022-08-23T06:01:17.162Z, 39.35
2022-08-23T06:02:17.135Z, 39.44
2022-08-23T06:03:17.128Z, 39.30
2022-08-23T06:04:17.179Z, 39.48
2022-08-23T06:05:17.181Z, 39.24
2022-08-23T06:06:17.211Z, 39.31
2022-08-23T06:07:17.243Z, 39.32
2022-08-23T06:08:17.273Z, 39.46
2022-08-23T06:09:17.369Z, 39.38
2022-08-23T06:10:17.359Z, 39.37
2022-08-23T06:11:17.390Z, 39.52
2022-08-23T06:12:17.384Z, 39.52
2022-08-23T06:13:17.419Z, 39.42
2022-08-23T06:14:17.584Z, 39.54
2022-08-23T06:15:17.499Z, 39.39
2022-08-23T06:16:17.555Z, 39.60
2022-08-23T06:17:17.549Z, 39.44
2022-08-23T06:18:17.569Z, 39.56
2022-08-23T06:19:17.669Z, 39.44
2022-08-23T06:20:17.758Z, 39.51
2022-08-23T06:21:17.691Z, 39.40
2022-08-23T06:22:17.690Z, 39.66
2022-08-23T06:23:17.737Z, 39.43
2022-08-23T06:24:17.777Z, 39.50
2022-08-23T06:25:17.874Z, 39.71
2022-08-23T06:26:17.867Z, 39.53
2022-08-23T06:27:17.864Z, 39.67
2022-08-23T06:28:17.920Z, 39.60
2022-08-23T06:29:18.038Z, 39.60
2022-08-23T06:30:17.973Z, 39.76
2022-08-23T06:31:18.131Z, 39.74
2022-08-23T06:32:18.119Z, 39.69
2022-08-23T06:33:18.121Z, 39.68
2022-08-23T06:34:18.113Z, 39.60
2022-08-23T06:35:37.604Z, 39.66
2022-08-23T06:36:18.169Z, 39.67
2022-08-23T06:37:18.197Z, 39.84
2022-08-23T06:38:18.274Z, 39.65
2022-08-23T06:39:18.277Z, 39.93
2022-08-23T06:40:18.354Z, 39.71
2022-08-23T06:41:18.342Z, 39.96
2022-08-23T06:42:38.516Z, 39.67
2022-08-23T06:43:18.423Z, 39.90
2022-08-23T06:44:18.422Z, 39.61
2022-08-23T06:45:18.461Z, 39.82
2022-08-23T06:46:18.542Z, 39.83
2022-08-23T06:47:18.540Z, 39.92
2022-08-23T06:48:18.997Z, 39.77
2022-08-23T06:49:18.615Z, 39.93
2022-08-23T06:50:18.641Z, 40.00
2022-08-23T06:51:18.671Z, 39.92
2022-08-23T06:52:18.726Z, 39.77
2022-08-23T06:53:18.741Z, 39.96
2022-08-23T06:54:18.825Z, 39.99
2022-08-23T06:55:18.825Z, 40.06
2022-08-23T06:56:18.851Z, 39.92
2022-08-23T06:57:18.891Z, 39.96
2022-08-23T06:58:18.911Z, 39.99
2022-08-23T06:59:18.985Z, 40.02
2022-08-23T07:00:22.328Z, 40.03
2022-08-23T07:01:44.057Z, 39.98
2022-08-23T07:02:19.170Z, 39.98
2022-08-23T07:03:19.078Z, 40.20
2022-08-23T07:04:19.107Z, 39.87
2022-08-23T07:05:19.162Z, 40.12
2022-08-23T07:06:19.223Z, 40.07
2022-08-23T07:07:19.209Z, 40.06
2022-08-23T07:08:19.279Z, 39.82
2022-08-23T07:09:19.279Z, 39.85
2022-08-23T07:10:19.371Z, 39.96
2022-08-23T07:11:19.362Z, 40.14
2022-08-23T07:12:19.378Z, 39.97
2022-08-23T07:13:19.472Z, 40.00
2022-08-23T07:14:19.453Z, 40.13
2022-08-23T07:15:19.463Z, 40.22
2022-08-23T07:16:19.538Z, 40.00
2022-08-23T07:17:19.603Z, 40.04
2022-08-23T07:18:19.576Z, 40.13
2022-08-23T07:19:19.593Z, 40.19
2022-08-23T07:20:19.633Z, 40.25
2022-08-23T07:21:19.657Z, 40.10
2022-08-23T07:22:19.678Z, 39.99
2022-08-23T07:23:19.717Z, 40.12
2022-08-23T07:24:19.754Z, 40.19
2022-08-23T07:25:19.786Z, 40.13
2022-08-23T07:26:19.828Z, 40.19
2022-08-23T07:27:19.925Z, 40.16
2022-08-23T07:28:19.925Z, 40.15
2022-08-23T07:29:19.948Z, 40.27
2022-08-23T07:30:19.958Z, 40.13
2022-08-23T07:31:20.190Z, 40.24
2022-08-23T07:32:20.062Z, 40.18
2022-08-23T07:33:20.045Z, 40.33
2022-08-23T07:34:20.095Z, 40.11
2022-08-23T07:35:21.528Z, 40.12
2022-08-23T07:36:20.161Z, 40.24
2022-08-23T07:37:20.228Z, 40.50
2022-08-23T07:38:20.210Z, 40.40
2022-08-23T07:39:20.311Z, 40.52
2022-08-23T07:40:20.938Z, 40.56
2022-08-23T07:41:20.303Z, 40.31
2022-08-23T07:42:23.457Z, 40.46
2022-08-23T07:43:20.415Z, 40.24
2022-08-23T07:44:23.547Z, 40.35
2022-08-23T07:45:23.056Z, 40.32
2022-08-23T07:46:20.505Z, 40.36
2022-08-23T07:47:20.503Z, 40.57
2022-08-23T07:48:43.217Z, 40.45
2022-08-23T07:49:20.582Z, 40.38
2022-08-23T07:50:20.675Z, 40.32
2022-08-23T07:51:20.682Z, 40.25
2022-08-23T07:52:20.672Z, 40.63
2022-08-23T07:53:34.188Z, 40.32
2022-08-23T07:54:20.746Z, 40.30
2022-08-23T07:55:20.857Z, 40.25
2022-08-23T07:56:20.894Z, 40.66
2022-08-23T07:57:20.907Z, 40.34
2022-08-23T07:58:20.890Z, 40.56
2022-08-23T07:59:20.937Z, 40.52
2022-08-23T08:00:20.941Z, 40.87
2022-08-23T08:01:21.030Z, 40.97
2022-08-23T08:02:21.019Z, 40.82
2022-08-23T08:03:21.094Z, 40.63
2022-08-23T08:04:21.076Z, 40.67
2022-08-23T08:05:21.921Z, 40.60
2022-08-23T08:06:21.116Z, 40.57
2022-08-23T08:07:21.535Z, 40.57
2022-08-23T08:08:21.231Z, 40.52
2022-08-23T08:09:21.229Z, 40.67
2022-08-23T08:10:21.312Z, 40.83
2022-08-23T08:11:21.311Z, 40.56
2022-08-23T08:12:21.398Z, 40.68
2022-08-23T08:13:21.376Z, 40.91
2022-08-23T08:14:21.399Z, 40.77
2022-08-23T08:15:21.437Z, 40.92
2022-08-23T08:16:21.570Z, 40.69
2022-08-23T08:17:26.861Z, 40.72
2022-08-23T08:18:21.605Z, 41.05
2022-08-23T08:19:21.639Z, 40.60
2022-08-23T08:20:21.635Z, 40.64
2022-08-23T08:21:21.650Z, 40.66
2022-08-23T08:22:21.660Z, 40.47
2022-08-23T08:23:21.693Z, 40.75
2022-08-23T08:24:21.790Z, 40.78
2022-08-23T08:25:21.786Z, 40.62
2022-08-23T08:26:21.819Z, 40.66
2022-08-23T08:27:21.912Z, 40.55
2022-08-23T08:28:21.893Z, 40.93
2022-08-23T08:29:21.916Z, 40.87
2022-08-23T08:30:21.931Z, 40.55
2022-08-23T08:31:22.048Z, 40.91
2022-08-23T08:32:22.019Z, 40.97
2022-08-23T08:33:22.066Z, 40.88
2022-08-23T08:34:22.089Z, 41.18
2022-08-23T08:35:22.602Z, 41.23
2022-08-23T08:36:22.162Z, 40.86
2022-08-23T08:37:22.192Z, 40.87
2022-08-23T08:38:22.224Z, 40.63
2022-08-23T08:39:22.256Z, 40.68
2022-08-23T08:40:22.355Z, 40.83
2022-08-23T08:41:22.351Z, 41.04
2022-08-23T08:42:22.371Z, 41.03
2022-08-23T08:43:22.451Z, 41.38
2022-08-23T08:44:22.424Z, 40.97
2022-08-23T08:45:23.437Z, 41.22
2022-08-23T08:46:22.538Z, 41.06
2022-08-23T08:47:22.509Z, 41.11
2022-08-23T08:48:22.605Z, 41.29
2022-08-23T08:49:22.605Z, 41.10
2022-08-23T08:50:22.673Z, 41.09
2022-08-23T08:51:22.663Z, 41.32
2022-08-23T08:52:22.664Z, 40.95
2022-08-23T08:53:22.696Z, 41.40
2022-08-23T08:54:22.793Z, 41.20
2022-08-23T08:55:22.797Z, 41.12
2022-08-23T08:56:22.853Z, 40.92
2022-08-23T08:57:27.332Z, 41.41
2022-08-23T08:58:22.884Z, 40.97
2022-08-23T08:59:22.910Z, 41.29
2022-08-23T09:00:22.967Z, 40.97
2022-08-23T09:01:23.052Z, 41.09
2022-08-23T09:02:32.772Z, 41.19
2022-08-23T09:03:23.202Z, 41.17
2022-08-23T09:04:23.160Z, 41.13
2022-08-23T09:05:23.138Z, 41.06
2022-08-23T09:06:23.156Z, 41.27
2022-08-23T09:07:24.517Z, 41.13
2022-08-23T09:08:23.278Z, 41.24
2022-08-23T09:09:23.341Z, 41.22
2022-08-23T09:10:23.304Z, 41.45
2022-08-23T09:11:23.335Z, 41.41
2022-08-23T09:12:23.370Z, 41.45
2022-08-23T09:13:23.383Z, 41.26
2022-08-23T09:14:23.421Z, 41.45
2022-08-23T09:15:23.447Z, 41.39
2022-08-23T09:16:23.518Z, 40.84
2022-08-23T09:17:23.549Z, 41.36
2022-08-23T09:18:23.554Z, 41.34
2022-08-23T09:19:23.597Z, 41.15
2022-08-23T09:20:23.701Z, 41.26
2022-08-23T09:21:23.678Z, 41.38
2022-08-23T09:22:23.742Z, 41.25
2022-08-23T09:23:23.742Z, 41.30
2022-08-23T09:24:23.744Z, 41.28
2022-08-23T09:25:23.770Z, 41.08
2022-08-23T09:26:23.820Z, 41.34
2022-08-23T09:27:23.990Z, 41.22
2022-08-23T09:28:23.901Z, 41.41
2022-08-23T09:29:23.908Z, 41.23
2022-08-23T09:30:24.002Z, 41.55
2022-08-23T09:31:24.099Z, 41.30
2022-08-23T09:32:24.055Z, 40.89
2022-08-23T09:33:26.394Z, 41.20
2022-08-23T09:34:24.063Z, 40.89
2022-08-23T09:35:24.103Z, 42.66
2022-08-23T09:36:24.118Z, 42.98
2022-08-23T09:37:24.188Z, 43.07
2022-08-23T09:38:24.278Z, 42.85
2022-08-23T09:39:24.297Z, 43.32
2022-08-23T09:40:24.334Z, 43.09
2022-08-23T09:41:24.268Z, 43.07
2022-08-23T09:42:24.332Z, 43.04
2022-08-23T09:43:24.377Z, 43.22
2022-08-23T09:44:24.430Z, 43.34
2022-08-23T09:45:24.427Z, 42.93
2022-08-23T09:46:24.472Z, 43.00
2022-08-23T09:47:24.491Z, 43.17
2022-08-23T09:48:28.163Z, 43.24
2022-08-23T09:49:24.561Z, 42.92
2022-08-23T09:50:24.613Z, 43.32
2022-08-23T09:51:25.145Z, 43.21
2022-08-23T09:52:24.676Z, 43.17
2022-08-23T09:53:24.662Z, 42.90
2022-08-23T09:54:24.658Z, 43.22
2022-08-23T09:55:24.700Z, 43.17
2022-08-23T09:56:24.805Z, 42.91
2022-08-23T09:57:24.788Z, 43.27
2022-08-23T09:58:24.878Z, 43.10
2022-08-23T09:59:27.076Z, 43.11
2022-08-23T10:00:24.873Z, 42.97
2022-08-23T10:01:24.931Z, 43.07
2022-08-23T10:02:24.912Z, 43.53
2022-08-23T10:03:24.957Z, 43.19
2022-08-23T10:04:25.155Z, 42.98
2022-08-23T10:05:25.048Z, 43.19
2022-08-23T10:06:25.060Z, 43.16
2022-08-23T10:07:25.161Z, 43.02
2022-08-23T10:08:25.141Z, 43.06
2022-08-23T10:09:25.185Z, 42.53
2022-08-23T10:10:25.223Z, 43.30
2022-08-23T10:11:25.254Z, 43.37
2022-08-23T10:12:25.300Z, 43.00
2022-08-23T10:13:25.338Z, 43.16
2022-08-23T10:14:28.663Z, 43.35
2022-08-23T10:15:25.411Z, 43.26
2022-08-23T10:16:25.487Z, 43.10
2022-08-23T10:17:25.504Z, 43.08
2022-08-23T10:18:25.478Z, 43.33
2022-08-23T10:19:25.528Z, 43.26
2022-08-23T10:20:25.542Z, 43.22
2022-08-23T10:21:25.637Z, 43.35
2022-08-23T10:22:25.625Z, 43.30
2022-08-23T10:23:25.718Z, 43.41
2022-08-23T10:24:25.698Z, 43.57
2022-08-23T10:25:25.760Z, 43.07
2022-08-23T10:26:25.748Z, 43.11
2022-08-23T10:27:25.768Z, 42.94
2022-08-23T10:28:25.836Z, 43.15
2022-08-23T10:29:25.846Z, 43.25
2022-08-23T10:30:25.878Z, 43.13
2022-08-23T10:31:26.062Z, 42.83
2022-08-23T10:32:25.952Z, 42.73
2022-08-23T10:33:26.044Z, 43.04
2022-08-23T10:34:26.058Z, 43.01
2022-08-23T10:35:26.077Z, 43.11
2022-08-23T10:36:26.114Z, 43.05
2022-08-23T10:37:26.198Z, 43.30
2022-08-23T10:38:26.219Z, 43.41
2022-08-23T10:39:26.199Z, 43.03
2022-08-23T10:40:26.504Z, 43.00
2022-08-23T10:41:26.403Z, 43.14
2022-08-23T10:42:26.407Z, 43.45
2022-08-23T10:43:26.405Z, 43.06
2022-08-23T10:44:26.403Z, 43.46
2022-08-23T10:45:26.495Z, 43.45
2022-08-23T10:46:26.495Z, 43.19
2022-08-23T10:47:26.493Z, 43.33
2022-08-23T10:48:26.598Z, 43.09
2022-08-23T10:49:26.580Z, 43.42
2022-08-23T10:50:26.661Z, 43.60
2022-08-23T10:51:31.684Z, 43.24
2022-08-23T10:52:26.640Z, 43.23
2022-08-23T10:53:26.704Z, 43.34
2022-08-23T10:54:27.672Z, 43.33
2022-08-23T10:55:26.740Z, 43.47
2022-08-23T10:56:26.769Z, 43.44
2022-08-23T10:57:26.857Z, 43.55
2022-08-23T10:58:26.825Z, 43.28
2022-08-23T10:59:26.862Z, 43.38
2022-08-23T11:00:26.948Z, 42.94
2022-08-23T11:01:27.030Z, 43.02
2022-08-23T11:02:27.030Z, 43.31
2022-08-23T11:03:28.891Z, 43.22
2022-08-23T11:04:27.036Z, 43.26
2022-08-23T11:05:27.132Z, 42.95
2022-08-23T11:06:27.128Z, 42.64
2022-08-23T11:07:27.122Z, 43.19
2022-08-23T11:08:27.191Z, 43.43
2022-08-23T11:09:27.188Z, 43.18
2022-08-23T11:10:27.195Z, 42.74
2022-08-23T11:11:27.238Z, 43.00
2022-08-23T11:12:31.164Z, 43.21
2022-08-23T11:13:27.302Z, 43.32
2022-08-23T11:14:27.352Z, 43.40
2022-08-23T11:15:27.421Z, 43.34
2022-08-23T11:16:27.399Z, 43.52
2022-08-23T11:17:27.450Z, 43.42
2022-08-23T11:18:31.307Z, 43.36
2022-08-23T11:19:27.506Z, 43.35
2022-08-23T11:20:27.596Z, 43.61
2022-08-23T11:21:27.641Z, 43.45
2022-08-23T11:22:27.649Z, 43.55
2022-08-23T11:23:27.634Z, 43.57
2022-08-23T11:24:27.709Z, 43.57
2022-08-23T11:25:27.749Z, 43.29
2022-08-23T11:26:27.733Z, 43.32
2022-08-23T11:27:27.820Z, 43.58
2022-08-23T11:28:30.481Z, 43.67
2022-08-23T11:29:27.884Z, 43.39
2022-08-23T11:30:27.904Z, 43.13
2022-08-23T11:31:28.003Z, 43.43
2022-08-23T11:32:29.964Z, 43.43
2022-08-23T11:33:27.953Z, 43.53
2022-08-23T11:34:29.894Z, 43.25
2022-08-23T11:35:28.073Z, 43.26
2022-08-23T11:36:28.064Z, 43.27
2022-08-23T11:37:28.155Z, 43.38
2022-08-23T11:38:28.139Z, 43.25
2022-08-23T11:39:28.154Z, 43.25
2022-08-23T11:40:28.532Z, 43.48
2022-08-23T11:41:28.280Z, 43.38
2022-08-23T11:42:28.276Z, 43.41
2022-08-23T11:43:28.369Z, 43.36
2022-08-23T11:44:28.349Z, 43.40
2022-08-23T11:45:28.392Z, 43.45
2022-08-23T11:46:28.470Z, 43.47
2022-08-23T11:47:28.448Z, 43.37
2022-08-23T11:48:28.440Z, 43.64
2022-08-23T11:49:28.480Z, 43.55
2022-08-23T11:50:28.529Z, 43.30
2022-08-23T11:51:28.562Z, 43.29
2022-08-23T11:52:28.582Z, 43.35
2022-08-23T11:53:28.619Z, 43.11
2022-08-23T11:54:28.638Z, 43.30
2022-08-23T11:55:28.668Z, 43.63
2022-08-23T11:56:28.710Z, 43.85
2022-08-23T11:57:28.741Z, 43.17
2022-08-23T11:58:29.692Z, 43.39
2022-08-23T11:59:28.867Z, 43.39
2022-08-23T12:00:29.604Z, 43.03
2022-08-23T12:01:28.846Z, 43.35
2022-08-23T12:02:28.979Z, 43.38
2022-08-23T12:03:29.050Z, 43.42
2022-08-23T12:04:28.958Z, 43.45
2022-08-23T12:05:28.998Z, 43.36
2022-08-23T12:06:29.069Z, 43.70
2022-08-23T12:07:29.073Z, 43.86
2022-08-23T12:08:29.115Z, 43.27
2022-08-23T12:09:29.130Z, 43.45
2022-08-23T12:10:29.152Z, 43.04
2022-08-23T12:11:29.246Z, 42.79
2022-08-23T12:12:29.290Z, 43.02
2022-08-23T12:13:29.326Z, 42.27
2022-08-23T12:14:29.320Z, 42.75
2022-08-23T12:15:29.380Z, 42.65
2022-08-23T12:16:29.402Z, 42.50
2022-08-23T12:17:29.732Z, 42.96
2022-08-23T12:18:29.414Z, 42.86
2022-08-23T12:19:29.502Z, 42.57
2022-08-23T12:20:29.489Z, 43.14
2022-08-23T12:21:29.527Z, 43.37
2022-08-23T12:22:29.562Z, 43.29
2022-08-23T12:23:30.811Z, 43.27
2022-08-23T12:24:29.620Z, 43.28
2022-08-23T12:25:29.634Z, 43.25
2022-08-23T12:26:29.720Z, 43.47
2022-08-23T12:27:29.762Z, 43.14
2022-08-23T12:28:29.731Z, 43.17
2022-08-23T12:29:29.767Z, 43.19
2022-08-23T12:30:29.868Z, 43.17